sensor_id;sensor_type;location;lat;lon;timestamp;P1;durP1;ratioP1;P2;durP2;ratioP2
39102;SDS011;24847;48.218;16.414;2023-04-29T00:02:03;10.15;;;9.15;;
39102;SDS011;24847;48.218;16.414;2023-04-29T00:07:06;9.40;;;8.55;;
39102;SDS011;24847;48.218;16.414;2023-04-29T00:12:10;9.93;;;9.02;;
39102;SDS011;24847;48.218;16.414;2023-04-29T00:17:15;9.00;;;8.20;;
39102;SDS011;24847;48.218;16.414;2023-04-29T00:22:23;9.15;;;8.30;;
39102;SDS011;24847;48.218;16.414;2023-04-29T00:27:29;9.80;;;8.80;;
39102;SDS011;24847;48.218;16.414;2023-04-29T00:32:33;9.95;;;8.93;;
39102;SDS011;24847;48.218;16.414;2023-04-29T00:37:35;10.10;;;9.13;;
39102;SDS011;24847;48.218;16.414;2023-04-29T00:42:38;11.07;;;9.52;;
39102;SDS011;24847;48.218;16.414;2023-04-29T00:47:41;10.75;;;9.65;;
39102;SDS011;24847;48.218;16.414;2023-04-29T00:52:46;11.02;;;9.75;;
39102;SDS011;24847;48.218;16.414;2023-04-29T00:57:54;10.68;;;9.63;;
39102;SDS011;24847;48.218;16.414;2023-04-29T01:02:58;8.07;;;7.28;;
39102;SDS011;24847;48.218;16.414;2023-04-29T01:08:05;10.50;;;9.48;;
39102;SDS011;24847;48.218;16.414;2023-04-29T01:13:20;10.90;;;9.80;;
39102;SDS011;24847;48.218;16.414;2023-04-29T01:18:33;11.10;;;10.00;;
39102;SDS011;24847;48.218;16.414;2023-04-29T01:23:44;10.15;;;9.13;;
39102;SDS011;24847;48.218;16.414;2023-04-29T01:28:49;10.95;;;9.90;;
39102;SDS011;24847;48.218;16.414;2023-04-29T01:33:58;9.85;;;8.90;;
39102;SDS011;24847;48.218;16.414;2023-04-29T01:39:20;11.07;;;9.97;;
39102;SDS011;24847;48.218;16.414;2023-04-29T01:44:34;9.23;;;8.32;;
39102;SDS011;24847;48.218;16.414;2023-04-29T01:49:40;10.32;;;9.32;;
39102;SDS011;24847;48.218;16.414;2023-04-29T01:54:44;11.02;;;9.93;;
39102;SDS011;24847;48.218;16.414;2023-04-29T01:59:47;10.77;;;9.68;;
39102;SDS011;24847;48.218;16.414;2023-04-29T02:04:50;11.88;;;10.60;;
39102;SDS011;24847;48.218;16.414;2023-04-29T02:09:54;12.20;;;10.80;;
39102;SDS011;24847;48.218;16.414;2023-04-29T02:14:57;12.55;;;11.23;;
39102;SDS011;24847;48.218;16.414;2023-04-29T02:19:59;11.93;;;10.65;;
39102;SDS011;24847;48.218;16.414;2023-04-29T02:30:24;9.57;;;8.55;;
39102;SDS011;24847;48.218;16.414;2023-04-29T02:35:26;12.25;;;10.95;;
39102;SDS011;24847;48.218;16.414;2023-04-29T02:40:30;10.95;;;9.85;;
39102;SDS011;24847;48.218;16.414;2023-04-29T02:45:33;11.52;;;10.35;;
39102;SDS011;24847;48.218;16.414;2023-04-29T02:50:36;12.77;;;11.43;;
39102;SDS011;24847;48.218;16.414;2023-04-29T02:55:39;11.55;;;10.43;;
39102;SDS011;24847;48.218;16.414;2023-04-29T03:00:42;11.88;;;10.43;;
39102;SDS011;24847;48.218;16.414;2023-04-29T03:05:45;11.50;;;10.30;;
39102;SDS011;24847;48.218;16.414;2023-04-29T03:10:49;13.20;;;11.48;;
39102;SDS011;24847;48.218;16.414;2023-04-29T03:15:51;11.70;;;10.55;;
39102;SDS011;24847;48.218;16.414;2023-04-29T03:20:56;11.30;;;10.10;;
39102;SDS011;24847;48.218;16.414;2023-04-29T03:26:00;14.05;;;12.07;;
39102;SDS011;24847;48.218;16.414;2023-04-29T03:31:03;13.52;;;12.15;;
39102;SDS011;24847;48.218;16.414;2023-04-29T03:36:05;14.30;;;12.82;;
39102;SDS011;24847;48.218;16.414;2023-04-29T03:41:10;13.30;;;11.98;;
39102;SDS011;24847;48.218;16.414;2023-04-29T03:46:12;12.75;;;10.95;;
39102;SDS011;24847;48.218;16.414;2023-04-29T03:51:14;11.85;;;10.60;;
39102;SDS011;24847;48.218;16.414;2023-04-29T03:56:18;12.50;;;11.20;;
39102;SDS011;24847;48.218;16.414;2023-04-29T04:01:20;12.55;;;11.27;;
39102;SDS011;24847;48.218;16.414;2023-04-29T04:06:22;13.10;;;11.40;;
39102;SDS011;24847;48.218;16.414;2023-04-29T04:11:26;12.07;;;10.82;;
39102;SDS011;24847;48.218;16.414;2023-04-29T04:16:30;10.75;;;9.68;;
39102;SDS011;24847;48.218;16.414;2023-04-29T04:21:32;11.68;;;10.55;;
39102;SDS011;24847;48.218;16.414;2023-04-29T04:26:37;11.85;;;10.65;;
39102;SDS011;24847;48.218;16.414;2023-04-29T04:31:40;11.68;;;10.13;;
39102;SDS011;24847;48.218;16.414;2023-04-29T04:36:42;12.63;;;11.32;;
39102;SDS011;24847;48.218;16.414;2023-04-29T04:41:46;12.63;;;11.38;;
39102;SDS011;24847;48.218;16.414;2023-04-29T04:46:49;11.68;;;10.55;;
39102;SDS011;24847;48.218;16.414;2023-04-29T04:51:51;10.25;;;9.25;;
39102;SDS011;24847;48.218;16.414;2023-04-29T04:56:55;12.85;;;11.60;;
39102;SDS011;24847;48.218;16.414;2023-04-29T05:01:58;12.02;;;10.85;;
39102;SDS011;24847;48.218;16.414;2023-04-29T05:07:01;9.23;;;8.32;;
39102;SDS011;24847;48.218;16.414;2023-04-29T05:12:04;11.40;;;10.30;;
39102;SDS011;24847;48.218;16.414;2023-04-29T05:17:07;11.70;;;10.60;;
39102;SDS011;24847;48.218;16.414;2023-04-29T05:22:10;15.13;;;13.55;;
39102;SDS011;24847;48.218;16.414;2023-04-29T05:27:14;12.77;;;11.07;;
39102;SDS011;24847;48.218;16.414;2023-04-29T05:32:16;12.52;;;11.23;;
39102;SDS011;24847;48.218;16.414;2023-04-29T05:37:18;13.07;;;11.45;;
39102;SDS011;24847;48.218;16.414;2023-04-29T05:42:22;12.57;;;10.50;;
39102;SDS011;24847;48.218;16.414;2023-04-29T05:47:24;11.38;;;10.07;;
39102;SDS011;24847;48.218;16.414;2023-04-29T05:52:26;12.30;;;10.40;;
39102;SDS011;24847;48.218;16.414;2023-04-29T05:57:30;9.65;;;8.63;;
39102;SDS011;24847;48.218;16.414;2023-04-29T06:02:32;7.22;;;6.53;;
39102;SDS011;24847;48.218;16.414;2023-04-29T06:07:34;10.73;;;9.57;;
39102;SDS011;24847;48.218;16.414;2023-04-29T06:12:39;9.93;;;8.93;;
39102;SDS011;24847;48.218;16.414;2023-04-29T06:17:41;9.65;;;8.70;;
39102;SDS011;24847;48.218;16.414;2023-04-29T06:22:43;9.88;;;8.88;;
39102;SDS011;24847;48.218;16.414;2023-04-29T06:27:48;10.07;;;9.07;;
39102;SDS011;24847;48.218;16.414;2023-04-29T06:32:50;10.60;;;9.52;;
39102;SDS011;24847;48.218;16.414;2023-04-29T06:37:52;8.38;;;7.45;;
39102;SDS011;24847;48.218;16.414;2023-04-29T06:42:57;7.55;;;6.80;;
39102;SDS011;24847;48.218;16.414;2023-04-29T06:47:59;6.95;;;6.25;;
39102;SDS011;24847;48.218;16.414;2023-04-29T06:53:01;5.57;;;5.07;;
39102;SDS011;24847;48.218;16.414;2023-04-29T06:58:05;5.50;;;4.90;;
39102;SDS011;24847;48.218;16.414;2023-04-29T07:03:07;5.18;;;4.68;;
39102;SDS011;24847;48.218;16.414;2023-04-29T07:08:10;4.65;;;4.25;;
39102;SDS011;24847;48.218;16.414;2023-04-29T07:13:15;5.43;;;4.93;;
39102;SDS011;24847;48.218;16.414;2023-04-29T07:18:17;5.90;;;5.22;;
39102;SDS011;24847;48.218;16.414;2023-04-29T07:23:20;5.82;;;5.32;;
39102;SDS011;24847;48.218;16.414;2023-04-29T07:28:23;6.25;;;5.65;;
39102;SDS011;24847;48.218;16.414;2023-04-29T07:33:25;6.40;;;5.45;;
39102;SDS011;24847;48.218;16.414;2023-04-29T07:38:30;5.72;;;5.22;;
39102;SDS011;24847;48.218;16.414;2023-04-29T07:43:33;6.20;;;5.55;;
39102;SDS011;24847;48.218;16.414;2023-04-29T07:48:36;5.82;;;5.32;;
39102;SDS011;24847;48.218;16.414;2023-04-29T07:53:39;5.97;;;5.35;;
39102;SDS011;24847;48.218;16.414;2023-04-29T07:58:43;5.93;;;5.43;;
39102;SDS011;24847;48.218;16.414;2023-04-29T08:03:45;6.28;;;5.53;;
39102;SDS011;24847;48.218;16.414;2023-04-29T08:08:47;5.32;;;4.82;;
39102;SDS011;24847;48.218;16.414;2023-04-29T08:13:51;5.03;;;4.53;;
39102;SDS011;24847;48.218;16.414;2023-04-29T08:18:54;4.72;;;4.22;;
39102;SDS011;24847;48.218;16.414;2023-04-29T08:23:56;5.25;;;4.82;;
39102;SDS011;24847;48.218;16.414;2023-04-29T08:28:59;4.72;;;4.32;;
39102;SDS011;24847;48.218;16.414;2023-04-29T08:34:01;4.95;;;4.45;;
39102;SDS011;24847;48.218;16.414;2023-04-29T08:39:04;4.45;;;4.05;;
39102;SDS011;24847;48.218;16.414;2023-04-29T08:44:07;4.72;;;4.30;;
39102;SDS011;24847;48.218;16.414;2023-04-29T08:49:10;4.57;;;4.18;;
39102;SDS011;24847;48.218;16.414;2023-04-29T08:54:13;5.30;;;3.90;;
39102;SDS011;24847;48.218;16.414;2023-04-29T08:59:17;4.80;;;4.38;;
39102;SDS011;24847;48.218;16.414;2023-04-29T09:04:23;4.28;;;3.88;;
39102;SDS011;24847;48.218;16.414;2023-04-29T09:09:35;3.67;;;3.03;;
39102;SDS011;24847;48.218;16.414;2023-04-29T09:14:41;4.00;;;3.60;;
39102;SDS011;24847;48.218;16.414;2023-04-29T09:19:43;4.57;;;4.18;;
39102;SDS011;24847;48.218;16.414;2023-04-29T09:24:45;6.15;;;5.57;;
39102;SDS011;24847;48.218;16.414;2023-04-29T09:30:00;5.50;;;5.00;;
39102;SDS011;24847;48.218;16.414;2023-04-29T09:40:27;7.45;;;6.75;;
39102;SDS011;24847;48.218;16.414;2023-04-29T09:45:33;4.63;;;4.22;;
39102;SDS011;24847;48.218;16.414;2023-04-29T09:50:36;6.63;;;6.03;;
39102;SDS011;24847;48.218;16.414;2023-04-29T10:01:01;5.13;;;4.63;;
39102;SDS011;24847;48.218;16.414;2023-04-29T10:06:06;5.28;;;4.78;;
39102;SDS011;24847;48.218;16.414;2023-04-29T10:11:08;7.68;;;6.22;;
39102;SDS011;24847;48.218;16.414;2023-04-29T10:16:18;6.85;;;6.25;;
39102;SDS011;24847;48.218;16.414;2023-04-29T10:21:29;5.95;;;5.30;;
39102;SDS011;24847;48.218;16.414;2023-04-29T10:26:32;7.35;;;6.65;;
39102;SDS011;24847;48.218;16.414;2023-04-29T10:31:37;6.80;;;6.20;;
39102;SDS011;24847;48.218;16.414;2023-04-29T10:36:41;10.23;;;9.13;;
39102;SDS011;24847;48.218;16.414;2023-04-29T10:41:44;8.25;;;7.45;;
39102;SDS011;24847;48.218;16.414;2023-04-29T10:46:49;8.10;;;7.40;;
39102;SDS011;24847;48.218;16.414;2023-04-29T10:52:20;7.88;;;7.13;;
39102;SDS011;24847;48.218;16.414;2023-04-29T10:57:22;9.48;;;8.60;;
39102;SDS011;24847;48.218;16.414;2023-04-29T11:02:26;11.77;;;8.10;;
39102;SDS011;24847;48.218;16.414;2023-04-29T11:07:28;8.43;;;7.63;;
39102;SDS011;24847;48.218;16.414;2023-04-29T11:12:31;7.82;;;7.05;;
39102;SDS011;24847;48.218;16.414;2023-04-29T11:17:37;7.40;;;6.68;;
39102;SDS011;24847;48.218;16.414;2023-04-29T11:22:40;7.05;;;6.40;;
39102;SDS011;24847;48.218;16.414;2023-04-29T11:27:51;7.40;;;6.70;;
39102;SDS011;24847;48.218;16.414;2023-04-29T11:32:56;6.80;;;6.20;;
39102;SDS011;24847;48.218;16.414;2023-04-29T11:38:00;7.60;;;6.35;;
39102;SDS011;24847;48.218;16.414;2023-04-29T11:43:03;7.15;;;6.55;;
39102;SDS011;24847;48.218;16.414;2023-04-29T11:48:08;6.97;;;6.35;;
39102;SDS011;24847;48.218;16.414;2023-04-29T11:53:11;5.85;;;5.35;;
39102;SDS011;24847;48.218;16.414;2023-04-29T11:58:13;5.68;;;3.92;;
39102;SDS011;24847;48.218;16.414;2023-04-29T12:03:26;4.93;;;4.43;;
39102;SDS011;24847;48.218;16.414;2023-04-29T12:08:28;4.70;;;4.30;;
39102;SDS011;24847;48.218;16.414;2023-04-29T12:13:33;4.70;;;4.22;;
39102;SDS011;24847;48.218;16.414;2023-04-29T12:18:37;4.30;;;3.55;;
39102;SDS011;24847;48.218;16.414;2023-04-29T12:23:40;4.28;;;3.88;;
39102;SDS011;24847;48.218;16.414;2023-04-29T12:28:43;4.03;;;3.58;;
39102;SDS011;24847;48.218;16.414;2023-04-29T12:33:49;4.18;;;3.78;;
39102;SDS011;24847;48.218;16.414;2023-04-29T12:38:59;3.92;;;3.53;;
39102;SDS011;24847;48.218;16.414;2023-04-29T12:44:02;5.07;;;4.57;;
39102;SDS011;24847;48.218;16.414;2023-04-29T12:49:07;3.53;;;3.22;;
39102;SDS011;24847;48.218;16.414;2023-04-29T12:54:09;5.72;;;5.18;;
39102;SDS011;24847;48.218;16.414;2023-04-29T12:59:11;4.80;;;4.30;;
39102;SDS011;24847;48.218;16.414;2023-04-29T13:04:17;5.00;;;4.07;;
39102;SDS011;24847;48.218;16.414;2023-04-29T13:09:20;5.90;;;5.32;;
39102;SDS011;24847;48.218;16.414;2023-04-29T13:14:22;4.47;;;4.03;;
39102;SDS011;24847;48.218;16.414;2023-04-29T13:19:25;4.30;;;3.90;;
39102;SDS011;24847;48.218;16.414;2023-04-29T13:24:28;5.57;;;4.85;;
39102;SDS011;24847;48.218;16.414;2023-04-29T13:29:32;6.75;;;5.97;;
39102;SDS011;24847;48.218;16.414;2023-04-29T13:34:35;5.32;;;4.82;;
39102;SDS011;24847;48.218;16.414;2023-04-29T13:39:37;5.97;;;5.10;;
39102;SDS011;24847;48.218;16.414;2023-04-29T13:44:40;5.47;;;4.25;;
39102;SDS011;24847;48.218;16.414;2023-04-29T13:49:44;4.53;;;3.67;;
39102;SDS011;24847;48.218;16.414;2023-04-29T13:54:46;5.10;;;3.70;;
39102;SDS011;24847;48.218;16.414;2023-04-29T13:59:49;3.33;;;3.00;;
39102;SDS011;24847;48.218;16.414;2023-04-29T14:04:53;2.38;;;2.17;;
39102;SDS011;24847;48.218;16.414;2023-04-29T14:10:00;2.53;;;2.33;;
39102;SDS011;24847;48.218;16.414;2023-04-29T14:15:03;3.22;;;2.92;;
39102;SDS011;24847;48.218;16.414;2023-04-29T14:20:09;3.33;;;2.75;;
39102;SDS011;24847;48.218;16.414;2023-04-29T14:30:19;1.98;;;1.60;;
39102;SDS011;24847;48.218;16.414;2023-04-29T14:35:23;3.17;;;2.70;;
39102;SDS011;24847;48.218;16.414;2023-04-29T14:40:25;3.10;;;2.90;;
39102;SDS011;24847;48.218;16.414;2023-04-29T14:45:27;2.47;;;2.03;;
39102;SDS011;24847;48.218;16.414;2023-04-29T14:50:31;2.25;;;2.05;;
39102;SDS011;24847;48.218;16.414;2023-04-29T14:55:33;1.90;;;1.73;;
39102;SDS011;24847;48.218;16.414;2023-04-29T15:00:35;1.60;;;1.50;;
39102;SDS011;24847;48.218;16.414;2023-04-29T15:05:39;2.28;;;2.08;;
39102;SDS011;24847;48.218;16.414;2023-04-29T15:10:41;1.77;;;1.67;;
39102;SDS011;24847;48.218;16.414;2023-04-29T15:15:44;1.70;;;1.55;;
39102;SDS011;24847;48.218;16.414;2023-04-29T15:20:48;1.50;;;1.40;;
39102;SDS011;24847;48.218;16.414;2023-04-29T15:25:51;2.60;;;1.55;;
39102;SDS011;24847;48.218;16.414;2023-04-29T15:30:53;2.70;;;1.52;;
39102;SDS011;24847;48.218;16.414;2023-04-29T15:35:56;2.80;;;1.58;;
39102;SDS011;24847;48.218;16.414;2023-04-29T15:40:59;2.22;;;1.90;;
39102;SDS011;24847;48.218;16.414;2023-04-29T15:46:02;3.65;;;2.90;;
39102;SDS011;24847;48.218;16.414;2023-04-29T15:51:06;2.45;;;2.25;;
39102;SDS011;24847;48.218;16.414;2023-04-29T15:56:09;2.33;;;2.13;;
39102;SDS011;24847;48.218;16.414;2023-04-29T16:01:18;3.20;;;2.60;;
39102;SDS011;24847;48.218;16.414;2023-04-29T16:06:22;3.38;;;2.90;;
39102;SDS011;24847;48.218;16.414;2023-04-29T16:11:27;4.45;;;3.60;;
39102;SDS011;24847;48.218;16.414;2023-04-29T16:16:29;5.03;;;4.43;;
39102;SDS011;24847;48.218;16.414;2023-04-29T16:21:33;4.45;;;3.85;;
39102;SDS011;24847;48.218;16.414;2023-04-29T16:26:35;3.88;;;3.05;;
39102;SDS011;24847;48.218;16.414;2023-04-29T16:31:39;2.65;;;2.25;;
39102;SDS011;24847;48.218;16.414;2023-04-29T16:36:43;4.47;;;2.20;;
39102;SDS011;24847;48.218;16.414;2023-04-29T16:41:46;3.10;;;2.00;;
39102;SDS011;24847;48.218;16.414;2023-04-29T16:46:48;2.60;;;1.88;;
39102;SDS011;24847;48.218;16.414;2023-04-29T16:51:52;2.42;;;1.58;;
39102;SDS011;24847;48.218;16.414;2023-04-29T16:56:54;3.10;;;2.22;;
39102;SDS011;24847;48.218;16.414;2023-04-29T17:01:57;2.92;;;2.03;;
39102;SDS011;24847;48.218;16.414;2023-04-29T17:07:03;4.93;;;3.17;;
39102;SDS011;24847;48.218;16.414;2023-04-29T17:12:05;4.95;;;3.40;;
39102;SDS011;24847;48.218;16.414;2023-04-29T17:17:07;5.78;;;3.92;;
39102;SDS011;24847;48.218;16.414;2023-04-29T17:22:11;4.35;;;3.53;;
39102;SDS011;24847;48.218;16.414;2023-04-29T17:27:13;3.83;;;3.28;;
39102;SDS011;24847;48.218;16.414;2023-04-29T17:32:15;3.85;;;3.42;;
39102;SDS011;24847;48.218;16.414;2023-04-29T17:37:26;3.33;;;2.93;;
39102;SDS011;24847;48.218;16.414;2023-04-29T17:42:29;3.53;;;2.67;;
39102;SDS011;24847;48.218;16.414;2023-04-29T17:47:32;4.22;;;3.72;;
39102;SDS011;24847;48.218;16.414;2023-04-29T17:52:36;4.38;;;3.97;;
39102;SDS011;24847;48.218;16.414;2023-04-29T17:57:39;5.68;;;3.83;;
39102;SDS011;24847;48.218;16.414;2023-04-29T18:02:41;6.70;;;4.90;;
39102;SDS011;24847;48.218;16.414;2023-04-29T18:07:44;5.60;;;4.47;;
39102;SDS011;24847;48.218;16.414;2023-04-29T18:12:47;4.70;;;4.00;;
39102;SDS011;24847;48.218;16.414;2023-04-29T18:17:49;4.95;;;3.97;;
39102;SDS011;24847;48.218;16.414;2023-04-29T18:22:54;8.13;;;4.45;;
39102;SDS011;24847;48.218;16.414;2023-04-29T18:27:57;4.00;;;3.60;;
39102;SDS011;24847;48.218;16.414;2023-04-29T18:32:59;4.07;;;3.67;;
39102;SDS011;24847;48.218;16.414;2023-04-29T18:38:03;5.38;;;4.53;;
39102;SDS011;24847;48.218;16.414;2023-04-29T18:43:06;5.55;;;3.88;;
39102;SDS011;24847;48.218;16.414;2023-04-29T18:48:08;4.60;;;3.88;;
39102;SDS011;24847;48.218;16.414;2023-04-29T18:53:13;4.88;;;4.15;;
39102;SDS011;24847;48.218;16.414;2023-04-29T18:58:16;5.38;;;4.05;;
39102;SDS011;24847;48.218;16.414;2023-04-29T19:03:18;4.00;;;3.60;;
39102;SDS011;24847;48.218;16.414;2023-04-29T19:08:23;5.63;;;5.07;;
39102;SDS011;24847;48.218;16.414;2023-04-29T19:13:26;6.72;;;4.88;;
39102;SDS011;24847;48.218;16.414;2023-04-29T19:18:28;8.75;;;7.15;;
39102;SDS011;24847;48.218;16.414;2023-04-29T19:23:32;6.97;;;6.28;;
39102;SDS011;24847;48.218;16.414;2023-04-29T19:28:35;5.28;;;4.50;;
39102;SDS011;24847;48.218;16.414;2023-04-29T19:33:38;4.30;;;3.90;;
39102;SDS011;24847;48.218;16.414;2023-04-29T19:38:44;5.65;;;3.53;;
39102;SDS011;24847;48.218;16.414;2023-04-29T19:43:48;5.03;;;3.75;;
39102;SDS011;24847;48.218;16.414;2023-04-29T19:48:50;5.68;;;4.43;;
39102;SDS011;24847;48.218;16.414;2023-04-29T19:53:54;4.13;;;3.15;;
39102;SDS011;24847;48.218;16.414;2023-04-29T19:58:59;3.10;;;2.75;;
39102;SDS011;24847;48.218;16.414;2023-04-29T20:04:02;2.90;;;2.70;;
39102;SDS011;24847;48.218;16.414;2023-04-29T20:09:06;3.15;;;2.85;;
39102;SDS011;24847;48.218;16.414;2023-04-29T20:14:10;7.95;;;7.15;;
39102;SDS011;24847;48.218;16.414;2023-04-29T20:19:12;5.45;;;4.63;;
39102;SDS011;24847;48.218;16.414;2023-04-29T20:24:16;4.80;;;4.30;;
39102;SDS011;24847;48.218;16.414;2023-04-29T20:29:19;3.65;;;3.10;;
39102;SDS011;24847;48.218;16.414;2023-04-29T20:34:22;3.72;;;2.90;;
39102;SDS011;24847;48.218;16.414;2023-04-29T20:39:26;4.55;;;3.22;;
39102;SDS011;24847;48.218;16.414;2023-04-29T20:44:28;3.30;;;2.95;;
39102;SDS011;24847;48.218;16.414;2023-04-29T20:49:31;3.35;;;3.03;;
39102;SDS011;24847;48.218;16.414;2023-04-29T20:54:35;3.72;;;2.97;;
39102;SDS011;24847;48.218;16.414;2023-04-29T20:59:37;3.63;;;2.83;;
39102;SDS011;24847;48.218;16.414;2023-04-29T21:04:39;3.92;;;3.10;;
39102;SDS011;24847;48.218;16.414;2023-04-29T21:09:43;2.80;;;2.60;;
39102;SDS011;24847;48.218;16.414;2023-04-29T21:14:48;2.83;;;2.63;;
39102;SDS011;24847;48.218;16.414;2023-04-29T21:19:50;2.55;;;2.35;;
39102;SDS011;24847;48.218;16.414;2023-04-29T21:24:53;2.65;;;2.45;;
39102;SDS011;24847;48.218;16.414;2023-04-29T21:29:55;2.90;;;2.28;;
39102;SDS011;24847;48.218;16.414;2023-04-29T21:34:58;2.58;;;2.38;;
39102;SDS011;24847;48.218;16.414;2023-04-29T21:40:01;2.58;;;2.38;;
39102;SDS011;24847;48.218;16.414;2023-04-29T21:45:04;2.25;;;2.10;;
39102;SDS011;24847;48.218;16.414;2023-04-29T21:50:08;2.38;;;2.17;;
39102;SDS011;24847;48.218;16.414;2023-04-29T21:55:13;1.80;;;1.70;;
39102;SDS011;24847;48.218;16.414;2023-04-29T22:00:15;2.42;;;2.22;;
39102;SDS011;24847;48.218;16.414;2023-04-29T22:05:29;2.50;;;2.30;;
39102;SDS011;24847;48.218;16.414;2023-04-29T22:10:33;2.30;;;2.10;;
39102;SDS011;24847;48.218;16.414;2023-04-29T22:15:39;2.67;;;2.38;;
39102;SDS011;24847;48.218;16.414;2023-04-29T22:20:41;2.90;;;2.63;;
39102;SDS011;24847;48.218;16.414;2023-04-29T22:25:45;3.28;;;2.60;;
39102;SDS011;24847;48.218;16.414;2023-04-29T22:30:47;2.17;;;1.98;;
39102;SDS011;24847;48.218;16.414;2023-04-29T22:35:49;2.55;;;2.35;;
39102;SDS011;24847;48.218;16.414;2023-04-29T22:40:53;2.85;;;2.63;;
39102;SDS011;24847;48.218;16.414;2023-04-29T22:45:55;2.72;;;2.53;;
39102;SDS011;24847;48.218;16.414;2023-04-29T22:50:57;2.53;;;2.33;;
39102;SDS011;24847;48.218;16.414;2023-04-29T22:56:01;3.10;;;2.80;;
39102;SDS011;24847;48.218;16.414;2023-04-29T23:01:05;2.67;;;2.47;;
39102;SDS011;24847;48.218;16.414;2023-04-29T23:06:07;3.25;;;2.95;;
39102;SDS011;24847;48.218;16.414;2023-04-29T23:11:11;2.78;;;2.58;;
39102;SDS011;24847;48.218;16.414;2023-04-29T23:16:13;2.63;;;2.42;;
39102;SDS011;24847;48.218;16.414;2023-04-29T23:21:15;3.28;;;2.97;;
39102;SDS011;24847;48.218;16.414;2023-04-29T23:26:19;3.13;;;2.83;;
39102;SDS011;24847;48.218;16.414;2023-04-29T23:31:22;2.88;;;2.63;;
39102;SDS011;24847;48.218;16.414;2023-04-29T23:36:24;3.47;;;3.17;;
39102;SDS011;24847;48.218;16.414;2023-04-29T23:41:28;2.80;;;2.60;;
39102;SDS011;24847;48.218;16.414;2023-04-29T23:46:31;2.88;;;2.67;;
39102;SDS011;24847;48.218;16.414;2023-04-29T23:51:33;4.00;;;3.60;;
39102;SDS011;24847;48.218;16.414;2023-04-29T23:56:36;3.35;;;3.05;;
